createdAt,value
2019-03-15T00:01:26.390Z,90.30
2019-03-15T00:03:59.226Z,90.20
2019-03-15T00:06:31.561Z,90.20
2019-03-15T00:09:05.264Z,90.40
2019-03-15T00:11:37.740Z,90.00
2019-03-15T00:14:10.739Z,90.10
2019-03-15T00:16:43.587Z,90.30
2019-03-15T00:19:16.161Z,90.10
2019-03-15T00:21:48.552Z,88.40
2019-03-15T00:24:20.915Z,87.70
2019-03-15T00:26:53.410Z,88.10
2019-03-15T00:29:26.395Z,88.10
2019-03-15T00:31:59.107Z,87.20
2019-03-15T00:34:31.758Z,86.20
2019-03-15T00:37:04.358Z,85.80
2019-03-15T00:39:36.836Z,85.70
2019-03-15T00:42:09.302Z,84.50
2019-03-15T00:44:41.828Z,84.90
2019-03-15T00:47:14.148Z,84.10
2019-03-15T00:50:07.469Z,83.70
2019-03-15T00:52:40.042Z,83.30
2019-03-15T00:55:12.820Z,82.90
2019-03-15T00:57:45.250Z,82.70
2019-03-15T01:00:18.913Z,83.20
2019-03-15T01:02:54.168Z,81.20
2019-03-15T01:05:26.791Z,81.40
2019-03-15T01:07:59.770Z,81.70
2019-03-15T01:10:32.291Z,81.00
2019-03-15T01:13:04.715Z,82.60
2019-03-15T01:15:37.411Z,79.60
2019-03-15T01:18:09.902Z,79.40
2019-03-15T01:20:42.442Z,79.10
2019-03-15T01:23:15.151Z,79.40
2019-03-15T01:25:47.838Z,79.50
2019-03-15T01:28:20.263Z,78.90
2019-03-15T01:30:52.965Z,79.10
2019-03-15T01:33:26.648Z,78.40
2019-03-15T01:35:59.290Z,78.50
2019-03-15T01:38:31.639Z,77.00
2019-03-15T01:41:04.484Z,77.10
2019-03-15T01:43:36.819Z,76.40
2019-03-15T01:46:09.602Z,76.60
2019-03-15T01:48:42.601Z,75.80
2019-03-15T01:51:15.648Z,75.60
2019-03-15T01:53:48.415Z,75.10
2019-03-15T01:56:21.127Z,75.30
2019-03-15T01:58:53.625Z,74.70
2019-03-15T02:01:26.325Z,74.10
2019-03-15T02:03:59.431Z,73.80
2019-03-15T02:06:33.401Z,73.60
2019-03-15T02:09:09.137Z,73.80
2019-03-15T02:11:40.519Z,72.40
2019-03-15T02:14:13.018Z,72.70
2019-03-15T02:16:45.431Z,72.80
2019-03-15T02:19:17.872Z,72.20
2019-03-15T02:21:50.177Z,72.50
2019-03-15T02:24:22.861Z,71.50
2019-03-15T02:26:55.261Z,73.10
2019-03-15T02:29:28.743Z,71.40
2019-03-15T02:32:01.186Z,72.20
2019-03-15T02:34:34.229Z,70.70
2019-03-15T02:37:07.317Z,71.80
2019-03-15T02:39:39.874Z,70.20
2019-03-15T02:42:13.115Z,70.90
2019-03-15T02:44:45.555Z,70.30
2019-03-15T02:47:19.572Z,69.70
2019-03-15T02:49:53.191Z,67.60
2019-03-15T02:52:25.855Z,69.80
2019-03-15T02:54:58.531Z,67.60
2019-03-15T02:57:30.859Z,67.60
2019-03-15T03:00:03.125Z,67.50
2019-03-15T03:02:36.994Z,66.50
2019-03-15T03:05:11.344Z,65.00
2019-03-15T03:07:43.585Z,65.00
2019-03-15T03:10:16.249Z,66.40
2019-03-15T03:12:48.823Z,66.00
2019-03-15T03:15:21.355Z,65.80
2019-03-15T03:17:53.848Z,65.30
2019-03-15T03:20:26.646Z,62.50
2019-03-15T03:22:58.827Z,61.80
2019-03-15T03:25:31.735Z,64.20
2019-03-15T03:28:04.342Z,62.80
2019-03-15T03:30:36.885Z,62.10
2019-03-15T03:33:08.967Z,60.50
2019-03-15T03:35:42.760Z,59.90
2019-03-15T03:38:15.653Z,60.20
2019-03-15T03:40:48.190Z,59.10
2019-03-15T03:43:20.513Z,59.40
2019-03-15T03:45:53.060Z,59.40
2019-03-15T03:48:25.528Z,59.60
2019-03-15T03:51:00.007Z,60.40
2019-03-15T03:53:32.338Z,59.60
2019-03-15T03:56:04.757Z,59.10
2019-03-15T03:58:37.120Z,59.90
2019-03-15T04:09:31.740Z,57.60
2019-03-15T04:12:05.486Z,57.50
2019-03-15T04:14:37.908Z,57.00
2019-03-15T04:17:10.393Z,58.00
2019-03-15T04:19:42.705Z,58.30
2019-03-15T04:22:15.138Z,58.00
2019-03-15T04:24:47.721Z,56.30
2019-03-15T04:27:20.031Z,56.00
2019-03-15T04:29:52.611Z,56.70
2019-03-15T04:32:25.604Z,56.10
2019-03-15T04:34:58.054Z,56.20
2019-03-15T04:37:30.975Z,56.30
2019-03-15T04:40:03.505Z,55.50
2019-03-15T04:42:36.103Z,56.80
2019-03-15T04:45:10.560Z,56.20
2019-03-15T04:47:43.774Z,56.00
2019-03-15T04:50:16.634Z,56.40
2019-03-15T04:52:49.395Z,56.50
2019-03-15T04:55:21.772Z,53.50
2019-03-15T04:57:54.135Z,54.80
2019-03-15T05:00:26.632Z,54.10
2019-03-15T05:02:59.201Z,54.10
2019-03-15T05:05:31.811Z,54.10
2019-03-15T05:08:04.383Z,52.30
2019-03-15T05:10:36.667Z,52.40
2019-03-15T05:13:10.103Z,51.80
2019-03-15T05:15:42.292Z,51.20
2019-03-15T05:18:14.631Z,51.10
2019-03-15T05:20:46.714Z,51.30
2019-03-15T05:23:19.623Z,49.40
2019-03-15T05:25:52.030Z,50.20
2019-03-15T05:28:24.734Z,49.90
2019-03-15T05:30:57.265Z,50.90
2019-03-15T05:33:29.999Z,51.80
2019-03-15T05:36:02.571Z,49.70
2019-03-15T05:38:35.557Z,49.40
2019-03-15T05:41:08.210Z,47.20
2019-03-15T05:43:41.706Z,46.50
2019-03-15T05:46:14.470Z,46.00
2019-03-15T05:48:46.879Z,47.20
2019-03-15T05:51:19.272Z,45.60
2019-03-15T05:53:51.858Z,44.70
2019-03-15T05:56:24.443Z,44.90
2019-03-15T05:58:56.818Z,47.20
2019-03-15T06:01:29.195Z,47.80
2019-03-15T06:04:01.820Z,44.80
2019-03-15T06:06:34.200Z,44.60
2019-03-15T06:09:07.956Z,46.90
2019-03-15T06:11:40.378Z,45.10
2019-03-15T06:14:12.955Z,44.80
2019-03-15T06:16:45.686Z,44.60
2019-03-15T06:19:18.110Z,45.30
2019-03-15T06:21:50.468Z,45.00
2019-03-15T06:24:23.058Z,44.20
2019-03-15T06:26:55.443Z,47.60
2019-03-15T06:29:28.766Z,44.80
2019-03-15T06:32:01.143Z,47.00
2019-03-15T06:34:33.976Z,46.90
2019-03-15T06:37:06.734Z,47.80
2019-03-15T06:39:39.082Z,45.60
2019-03-15T06:42:11.477Z,45.90
2019-03-15T06:44:57.028Z,47.40
2019-03-15T06:47:17.873Z,45.40
2019-03-15T06:49:50.577Z,47.70
2019-03-15T06:52:23.215Z,46.40
2019-03-15T06:54:56.200Z,44.30
2019-03-15T06:57:28.917Z,44.80
2019-03-15T07:00:01.502Z,46.90
2019-03-15T07:02:34.147Z,46.60
2019-03-15T07:05:11.683Z,47.90
2019-03-15T07:07:42.400Z,48.00
2019-03-15T07:10:14.922Z,47.10
2019-03-15T07:12:47.659Z,46.90
2019-03-15T07:15:20.181Z,45.70
2019-03-15T07:17:52.832Z,44.80
2019-03-15T07:20:25.764Z,47.30
2019-03-15T07:22:58.412Z,44.70
2019-03-15T07:25:30.930Z,45.40
2019-03-15T07:28:03.784Z,46.30
2019-03-15T07:30:36.018Z,46.60
2019-03-15T07:33:08.756Z,47.50
2019-03-15T07:35:41.526Z,45.50
2019-03-15T07:38:14.212Z,47.20
2019-03-15T07:40:46.822Z,46.20
2019-03-15T07:43:20.166Z,45.90
2019-03-15T07:45:52.815Z,46.30
2019-03-15T07:48:26.886Z,48.00
2019-03-15T07:51:00.619Z,46.90
2019-03-15T07:53:35.402Z,45.80
2019-03-15T07:56:07.195Z,46.50
2019-03-15T07:58:39.670Z,46.30
2019-03-15T08:01:12.451Z,48.00
2019-03-15T08:03:45.007Z,49.60
2019-03-15T08:06:17.498Z,45.50
2019-03-15T08:08:50.561Z,46.40
2019-03-15T08:11:23.225Z,45.40
2019-03-15T08:13:55.987Z,47.30
2019-03-15T08:16:28.898Z,46.80
2019-03-15T08:19:04.846Z,46.60
2019-03-15T08:21:36.511Z,46.20
2019-03-15T08:24:09.309Z,45.60
2019-03-15T08:26:42.192Z,45.10
2019-03-15T08:29:14.843Z,44.60
2019-03-15T08:31:47.381Z,44.70
2019-03-15T08:34:19.947Z,44.80
2019-03-15T08:36:52.516Z,44.50
2019-03-15T08:39:24.910Z,44.90
2019-03-15T08:41:57.444Z,44.70
2019-03-15T08:44:30.008Z,45.50
2019-03-15T08:47:03.051Z,47.40
2019-03-15T08:49:35.741Z,46.60
2019-03-15T08:52:08.201Z,46.00
2019-03-15T08:54:40.748Z,45.80
2019-03-15T08:57:13.577Z,46.60
2019-03-15T08:59:55.560Z,45.40
2019-03-15T09:02:20.263Z,45.90
2019-03-15T09:04:54.012Z,45.80
2019-03-15T09:07:26.744Z,46.30
2019-03-15T09:09:59.460Z,46.60
2019-03-15T09:12:31.993Z,46.90
2019-03-15T09:15:04.543Z,47.50
2019-03-15T09:17:37.610Z,47.70
2019-03-15T09:20:11.810Z,48.40
2019-03-15T09:22:44.325Z,48.90
2019-03-15T09:25:20.215Z,48.80
2019-03-15T09:27:52.594Z,48.90
2019-03-15T09:30:25.164Z,49.10
2019-03-15T09:32:58.249Z,49.40
2019-03-15T09:35:30.763Z,49.00
2019-03-15T09:38:03.767Z,49.50
2019-03-15T09:40:36.667Z,48.30
2019-03-15T09:43:09.651Z,48.70
2019-03-15T09:45:42.836Z,49.10
2019-03-15T09:48:15.370Z,48.90
2019-03-15T09:50:51.613Z,49.40
2019-03-15T09:53:22.080Z,50.80
2019-03-15T09:55:55.233Z,50.50
2019-03-15T09:58:28.232Z,50.40
2019-03-15T10:01:01.327Z,49.10
2019-03-15T10:03:34.083Z,49.40
2019-03-15T10:06:14.771Z,49.70
2019-03-15T10:08:41.212Z,49.70
2019-03-15T10:11:15.127Z,49.90
2019-03-15T10:13:47.955Z,49.40
2019-03-15T10:16:20.577Z,50.10
2019-03-15T10:18:53.482Z,50.60
2019-03-15T10:21:26.187Z,49.90
2019-03-15T10:23:58.696Z,49.80
2019-03-15T10:26:31.061Z,49.30
2019-03-15T10:29:14.684Z,50.80
2019-03-15T10:31:37.663Z,51.30
2019-03-15T10:34:10.218Z,51.90
2019-03-15T10:36:42.521Z,51.30
2019-03-15T10:39:14.874Z,51.80
2019-03-15T10:41:47.403Z,52.20
2019-03-15T10:44:20.313Z,52.00
2019-03-15T10:46:52.710Z,52.10
2019-03-15T10:49:25.126Z,52.50
2019-03-15T10:51:57.938Z,52.50
2019-03-15T10:54:31.539Z,52.90
2019-03-15T10:57:05.299Z,52.30
2019-03-15T10:59:37.847Z,53.60
2019-03-15T11:02:10.827Z,52.90
2019-03-15T11:04:42.927Z,53.60
2019-03-15T11:07:25.530Z,54.10
2019-03-15T11:09:57.920Z,54.20
2019-03-15T11:12:30.770Z,55.40
2019-03-15T11:15:03.085Z,54.10
2019-03-15T11:17:35.861Z,53.70
2019-03-15T11:20:13.259Z,54.40
2019-03-15T11:22:45.849Z,55.40
2019-03-15T11:25:18.165Z,54.90
2019-03-15T11:27:50.887Z,55.30
2019-03-15T11:30:23.586Z,55.50
2019-03-15T11:32:55.904Z,56.60
2019-03-15T11:35:28.687Z,57.00
2019-03-15T11:38:01.213Z,57.50
2019-03-15T11:40:33.797Z,57.50
2019-03-15T11:43:06.761Z,57.80
2019-03-15T11:45:39.476Z,58.00
2019-03-15T11:48:12.554Z,59.70
2019-03-15T11:50:45.015Z,58.80
2019-03-15T11:53:18.881Z,57.90
2019-03-15T11:55:51.544Z,58.70
2019-03-15T11:58:24.250Z,59.00
2019-03-15T12:00:56.632Z,59.30
2019-03-15T12:03:29.234Z,59.40
2019-03-15T12:06:01.529Z,60.00
2019-03-15T12:08:34.280Z,60.90
2019-03-15T12:11:06.674Z,60.90
2019-03-15T12:13:39.630Z,61.80
2019-03-15T12:16:12.444Z,63.00
2019-03-15T12:18:44.932Z,62.70
2019-03-15T12:21:17.368Z,63.20
2019-03-15T12:23:49.722Z,62.70
2019-03-15T12:26:22.051Z,63.20
2019-03-15T12:28:55.036Z,62.90
2019-03-15T12:31:27.565Z,63.60
2019-03-15T12:34:00.428Z,63.20
2019-03-15T12:36:32.744Z,62.90
2019-03-15T12:39:07.016Z,63.20
2019-03-15T12:41:39.928Z,63.40
2019-03-15T12:44:12.609Z,63.70
2019-03-15T12:46:44.902Z,63.70
2019-03-15T12:49:17.405Z,63.40
2019-03-15T12:51:49.969Z,63.20
2019-03-15T12:54:22.773Z,63.50
2019-03-15T12:56:55.617Z,64.60
2019-03-15T12:59:28.096Z,64.60
2019-03-15T13:02:00.546Z,65.50
2019-03-15T13:04:32.898Z,64.60
2019-03-15T13:07:05.613Z,65.30
2019-03-15T13:09:37.705Z,67.30
2019-03-15T13:12:10.302Z,67.30
2019-03-15T13:14:42.441Z,67.00
2019-03-15T13:17:15.271Z,67.50
2019-03-15T13:19:55.076Z,68.00
2019-03-15T13:22:22.021Z,67.30
2019-03-15T13:24:54.652Z,68.00
2019-03-15T13:27:27.486Z,68.10
2019-03-15T13:30:00.413Z,68.60
2019-03-15T13:32:34.348Z,68.60
2019-03-15T13:35:07.804Z,68.90
2019-03-15T13:37:42.880Z,69.20
2019-03-15T13:40:16.100Z,69.60
2019-03-15T13:42:48.740Z,70.30
2019-03-15T13:45:21.257Z,70.10
2019-03-15T13:47:53.890Z,70.30
2019-03-15T13:50:26.437Z,70.60
2019-03-15T13:52:58.904Z,70.80
2019-03-15T13:55:34.447Z,70.90
2019-03-15T13:58:19.253Z,71.20
2019-03-15T14:00:51.658Z,71.20
2019-03-15T14:03:24.826Z,71.60
2019-03-15T14:05:57.446Z,72.50
2019-03-15T14:08:29.957Z,72.00
2019-03-15T14:11:03.537Z,72.60
2019-03-15T14:13:35.681Z,72.60
2019-03-15T14:16:08.565Z,72.70
2019-03-15T14:18:41.063Z,73.00
2019-03-15T14:21:13.759Z,72.90
2019-03-15T14:23:47.637Z,73.10
2019-03-15T14:26:20.445Z,73.40
2019-03-15T14:28:52.791Z,73.60
2019-03-15T14:31:25.141Z,74.00
2019-03-15T14:33:57.550Z,74.20
2019-03-15T14:36:29.997Z,74.20
2019-03-15T14:39:02.468Z,75.00
2019-03-15T14:41:34.719Z,74.30
2019-03-15T14:44:26.342Z,74.60
2019-03-15T14:46:58.746Z,74.60
2019-03-15T14:49:31.092Z,75.30
2019-03-15T14:52:03.951Z,75.60
2019-03-15T14:54:37.184Z,75.60
2019-03-15T14:57:21.776Z,76.20
2019-03-15T14:59:54.933Z,75.80
2019-03-15T15:02:27.623Z,76.80
2019-03-15T15:05:00.818Z,76.20
2019-03-15T15:07:33.587Z,76.20
2019-03-15T15:10:08.716Z,77.20
2019-03-15T15:12:40.938Z,76.80
2019-03-15T15:15:15.521Z,76.80
2019-03-15T15:17:48.126Z,77.70
2019-03-15T15:20:20.849Z,78.30
2019-03-15T15:22:53.163Z,77.90
2019-03-15T15:25:25.759Z,78.40
2019-03-15T15:28:04.386Z,78.40
2019-03-15T15:30:31.846Z,77.90
2019-03-15T15:33:04.220Z,78.70
2019-03-15T15:35:37.942Z,78.20
2019-03-15T15:38:29.097Z,78.40
2019-03-15T15:41:01.504Z,78.70
2019-03-15T15:43:34.265Z,78.30
2019-03-15T15:46:06.683Z,78.40
2019-03-15T15:48:40.039Z,78.50
2019-03-15T15:51:13.238Z,78.80
2019-03-15T15:53:45.711Z,78.90
2019-03-15T15:56:18.111Z,79.10
2019-03-15T15:58:50.764Z,78.90
2019-03-15T16:01:23.399Z,79.40
2019-03-15T16:04:03.966Z,79.80
2019-03-15T16:06:36.710Z,79.60
2019-03-15T16:09:10.035Z,79.90
2019-03-15T16:11:42.375Z,80.70
2019-03-15T16:14:15.641Z,80.30
2019-03-15T16:16:47.950Z,80.10
2019-03-15T16:19:21.165Z,80.00
2019-03-15T16:21:53.452Z,80.10
2019-03-15T16:24:25.824Z,80.50
2019-03-15T16:26:58.244Z,80.50
2019-03-15T16:29:31.316Z,80.60
2019-03-15T16:32:03.853Z,80.70
2019-03-15T16:34:36.102Z,80.60
2019-03-15T16:37:08.537Z,80.30
2019-03-15T16:39:40.762Z,80.30
2019-03-15T16:42:13.405Z,80.50
2019-03-15T16:44:45.791Z,80.20
2019-03-15T16:47:18.476Z,80.30
2019-03-15T16:49:51.819Z,80.50
2019-03-15T16:52:25.259Z,80.50
2019-03-15T16:54:58.003Z,80.50
2019-03-15T16:57:30.486Z,80.80
2019-03-15T17:00:02.819Z,80.80
2019-03-15T17:02:35.800Z,81.00
2019-03-15T17:05:10.870Z,81.00
2019-03-15T17:07:43.862Z,81.60
2019-03-15T17:10:17.995Z,81.80
2019-03-15T17:12:51.149Z,82.50
2019-03-15T17:15:26.197Z,82.70
2019-03-15T17:17:58.914Z,82.80
2019-03-15T17:20:34.268Z,82.60
2019-03-15T17:23:07.598Z,82.20
2019-03-15T17:25:39.934Z,82.40
2019-03-15T17:28:12.510Z,82.40
2019-03-15T17:30:45.894Z,82.40
2019-03-15T17:33:18.644Z,82.50
2019-03-15T17:35:51.183Z,82.20
2019-03-15T17:38:23.935Z,82.40
2019-03-15T17:40:56.372Z,83.20
2019-03-15T17:43:28.881Z,82.40
2019-03-15T17:46:01.394Z,82.70
2019-03-15T17:48:35.123Z,82.70
2019-03-15T17:51:07.755Z,82.90
2019-03-15T17:53:40.375Z,82.90
2019-03-15T17:56:13.108Z,83.00
2019-03-15T17:58:45.539Z,83.00
2019-03-15T18:01:18.428Z,83.10
2019-03-15T18:03:50.988Z,82.80
2019-03-15T18:06:23.278Z,82.90
2019-03-15T18:08:55.709Z,82.90
2019-03-15T18:11:28.100Z,83.00
2019-03-15T18:14:00.628Z,83.00
2019-03-15T18:16:33.339Z,83.20
2019-03-15T18:19:05.969Z,83.40
2019-03-15T18:21:38.278Z,84.30
2019-03-15T18:24:10.980Z,83.40
2019-03-15T18:26:43.421Z,84.10
2019-03-15T18:29:25.860Z,83.70
2019-03-15T18:31:49.727Z,83.70
2019-03-15T18:34:22.105Z,84.40
2019-03-15T18:36:54.422Z,84.60
2019-03-15T18:39:27.086Z,84.60
2019-03-15T18:41:59.805Z,84.80
2019-03-15T18:44:32.337Z,84.50
2019-03-15T18:47:04.725Z,85.00
2019-03-15T18:49:37.123Z,85.20
2019-03-15T18:52:09.724Z,84.80
2019-03-15T18:54:42.110Z,85.30
2019-03-15T18:57:14.726Z,85.30
2019-03-15T18:59:47.411Z,85.30
2019-03-15T19:02:19.984Z,85.60
2019-03-15T19:04:52.618Z,85.90
2019-03-15T19:07:24.957Z,85.90
2019-03-15T19:09:57.559Z,86.40
2019-03-15T19:12:30.014Z,85.40
2019-03-15T19:15:02.378Z,86.40
2019-03-15T19:17:35.039Z,86.00
2019-03-15T19:20:10.157Z,85.90
2019-03-15T19:22:44.495Z,85.70
2019-03-15T19:25:17.844Z,86.30
2019-03-15T19:27:50.459Z,85.80
2019-03-15T19:30:23.537Z,86.50
2019-03-15T19:32:56.327Z,86.30
2019-03-15T19:35:28.647Z,86.60
2019-03-15T19:38:01.178Z,87.40
2019-03-15T19:40:34.993Z,86.60
2019-03-15T19:43:07.566Z,87.00
2019-03-15T19:45:41.455Z,87.10
2019-03-15T19:48:13.999Z,87.10
2019-03-15T19:50:46.895Z,87.90
2019-03-15T19:53:19.426Z,87.30
2019-03-15T19:55:54.944Z,87.40
2019-03-15T19:58:27.606Z,87.50
2019-03-15T20:01:00.234Z,87.70
2019-03-15T20:03:43.557Z,87.70
2019-03-15T20:06:07.667Z,87.80
2019-03-15T20:08:40.678Z,87.80
2019-03-15T20:11:13.445Z,87.70
2019-03-15T20:13:46.182Z,87.80
2019-03-15T20:16:18.705Z,87.80
2019-03-15T20:18:51.167Z,88.00
2019-03-15T20:21:23.896Z,88.50
2019-03-15T20:23:56.524Z,88.30
2019-03-15T20:26:28.913Z,88.30
2019-03-15T20:29:01.833Z,88.30
2019-03-15T20:31:34.218Z,88.80
2019-03-15T20:34:07.149Z,88.50
2019-03-15T20:36:39.646Z,88.60
2019-03-15T20:39:12.250Z,89.00
2019-03-15T20:41:44.743Z,89.30
2019-03-15T20:44:27.898Z,89.30
2019-03-15T20:46:51.183Z,89.60
2019-03-15T20:49:23.648Z,89.50
2019-03-15T20:51:56.706Z,90.00
2019-03-15T20:54:29.071Z,90.00
2019-03-15T20:57:01.480Z,90.10
2019-03-15T20:59:33.989Z,90.30
2019-03-15T21:02:06.608Z,90.00
2019-03-15T21:04:39.072Z,90.20
2019-03-15T21:07:11.389Z,90.20
2019-03-15T21:09:43.872Z,90.20
2019-03-15T21:12:16.284Z,90.20
2019-03-15T21:14:49.251Z,90.50
2019-03-15T21:17:21.705Z,90.40
2019-03-15T21:19:54.258Z,90.60
2019-03-15T21:22:27.070Z,90.70
2019-03-15T21:24:59.895Z,90.70
2019-03-15T21:27:32.501Z,90.50
2019-03-15T21:30:06.178Z,90.60
2019-03-15T21:32:39.045Z,91.00
2019-03-15T21:35:13.056Z,91.30
2019-03-15T21:37:45.803Z,91.20
2019-03-15T21:40:20.442Z,91.20
2019-03-15T21:42:52.899Z,91.00
2019-03-15T21:45:25.597Z,91.20
2019-03-15T21:47:57.944Z,91.30
2019-03-15T21:50:31.840Z,91.20
2019-03-15T21:53:04.465Z,91.30
2019-03-15T21:55:37.424Z,91.30
2019-03-15T21:58:09.920Z,91.20
2019-03-15T22:00:42.730Z,91.70
2019-03-15T22:03:15.343Z,91.40
2019-03-15T22:05:48.140Z,91.40
2019-03-15T22:08:20.628Z,91.40
2019-03-15T22:10:53.255Z,91.60
2019-03-15T22:13:25.864Z,91.40
2019-03-15T22:15:58.409Z,91.80
2019-03-15T22:18:30.732Z,92.10
2019-03-15T22:21:03.490Z,91.90
2019-03-15T22:23:35.779Z,92.20
2019-03-15T22:26:08.528Z,92.30
2019-03-15T22:28:40.856Z,92.00
2019-03-15T22:31:16.790Z,92.30
2019-03-15T22:33:47.929Z,92.30
2019-03-15T22:36:20.572Z,92.30
2019-03-15T22:38:53.344Z,92.40
2019-03-15T22:41:26.028Z,92.40
2019-03-15T22:43:58.405Z,92.40
2019-03-15T22:46:30.792Z,92.50
2019-03-15T22:49:03.181Z,93.10
2019-03-15T22:51:36.184Z,92.70
2019-03-15T22:54:08.752Z,92.70
2019-03-15T22:56:41.722Z,92.60
2019-03-15T22:59:14.303Z,92.80
2019-03-15T23:01:47.166Z,92.90
2019-03-15T23:04:19.609Z,92.80
2019-03-15T23:06:52.131Z,92.60
2019-03-15T23:09:24.704Z,92.60
2019-03-15T23:11:57.635Z,92.90
2019-03-15T23:14:31.257Z,92.90
2019-03-15T23:17:03.910Z,93.10
2019-03-15T23:19:36.317Z,93.00
2019-03-15T23:22:09.121Z,93.20
2019-03-15T23:24:41.650Z,93.10
2019-03-15T23:27:14.438Z,92.90
2019-03-15T23:29:47.542Z,92.90
2019-03-15T23:32:20.434Z,92.90
2019-03-15T23:34:53.271Z,92.90
2019-03-15T23:37:26.049Z,93.50
2019-03-15T23:39:58.491Z,93.60
2019-03-15T23:42:30.970Z,93.70
2019-03-15T23:45:03.416Z,93.40
2019-03-15T23:47:35.967Z,93.40
2019-03-15T23:50:10.829Z,93.20
2019-03-15T23:52:43.284Z,92.90
2019-03-15T23:55:15.966Z,92.70
2019-03-15T23:57:48.674Z,92.50
